This is the latest recevied weather packets stored in our database for station/object OE-11369. If no packets are shown the sender has not sent any weather packets the latest 10 day(s).
| Time | Temp. | Humidity | Pressure | Rain* | Wind** | Luminosity | Snow |
|---|---|---|---|---|---|---|---|
| 1787901902 | 21.11° C | 69% | 1011.1 hPa | - | - | - | - |
| 1787901074 | 21.11° C | 70% | 1011 hPa | - | - | - | - |
| 1787900701 | 21.11° C | 71% | 1011.2 hPa | - | - | - | - |
| 1787900102 | 20.56° C | 69% | 1011.5 hPa | - | - | - | - |
| 1787899275 | 20° C | 72% | 1012.1 hPa | - | - | - | - |
| 1787898901 | 20° C | 75% | 1012.2 hPa | - | - | - | - |
| 1787898302 | 19.44° C | 77% | 1012.2 hPa | - | - | - | - |
| 1787897474 | 18.89° C | 79% | 1012.4 hPa | - | - | - | - |
| 1787897101 | 18.89° C | 77% | 1012.5 hPa | - | - | - | - |
| 1787896501 | 17.78° C | 80% | 1012.8 hPa | - | - | - | - |
| 1787895674 | 17.22° C | 82% | 1013 hPa | - | - | - | - |
| 1787895302 | 16.67° C | 85% | 1013.1 hPa | - | - | - | - |
| 1787894702 | 16.67° C | 84% | 1013.2 hPa | - | - | - | - |
| 1787893875 | 16.67° C | 85% | 1013.2 hPa | - | - | - | - |
| 1787893502 | 16.67° C | 84% | 1012.9 hPa | - | - | - | - |
| 1787892902 | 16.67° C | 85% | 1012.7 hPa | - | - | - | - |
| 1787892074 | 16.67° C | 84% | 1012.7 hPa | - | - | - | - |
| 1787891701 | 16.67° C | 84% | 1012.9 hPa | - | - | - | - |
| 1787891102 | 16.67° C | 83% | 1012.8 hPa | - | - | - | - |
| 1787890274 | 16.67° C | 85% | 1013.2 hPa | - | - | - | - |
| 1787889901 | 16.67° C | 85% | 1013.1 hPa | - | - | - | - |
| 1787889302 | 16.67° C | 84% | 1013.1 hPa | - | - | - | - |
| 1787888701 | 16.67° C | 84% | 1013.2 hPa | - | - | - | - |
| 1787888101 | 16.67° C | 85% | 1013.1 hPa | - | - | - | - |
| 1787887501 | 16.67° C | 86% | 1013.3 hPa | - | - | - | - |
* Rain since midnight (hover to see other rain measurements)
** Current wind speed in m/s (hover to see current wind gust speed)